sensor_id;sensor_type;location;lat;lon;timestamp;temperature;humidity
21302;DHT22;10810;48.270;9.996;2023-04-15T00:01:27;4.00;99.90
21302;DHT22;10810;48.270;9.996;2023-04-15T00:03:54;3.90;99.90
21302;DHT22;10810;48.270;9.996;2023-04-15T00:06:23;3.90;99.90
21302;DHT22;10810;48.270;9.996;2023-04-15T00:08:50;4.00;99.90
21302;DHT22;10810;48.270;9.996;2023-04-15T00:11:18;3.90;99.90
21302;DHT22;10810;48.270;9.996;2023-04-15T00:13:45;3.80;99.90
21302;DHT22;10810;48.270;9.996;2023-04-15T00:16:12;3.80;99.90
21302;DHT22;10810;48.270;9.996;2023-04-15T00:18:39;3.80;99.90
21302;DHT22;10810;48.270;9.996;2023-04-15T00:21:06;3.70;99.90
21302;DHT22;10810;48.270;9.996;2023-04-15T00:23:34;3.60;99.90
21302;DHT22;10810;48.270;9.996;2023-04-15T00:26:02;3.70;99.90
21302;DHT22;10810;48.270;9.996;2023-04-15T00:28:28;3.60;99.90
21302;DHT22;10810;48.270;9.996;2023-04-15T00:30:56;3.60;99.90
21302;DHT22;10810;48.270;9.996;2023-04-15T00:33:23;3.40;99.90
21302;DHT22;10810;48.270;9.996;2023-04-15T00:35:51;3.40;99.90
21302;DHT22;10810;48.270;9.996;2023-04-15T00:38:18;3.30;99.90
21302;DHT22;10810;48.270;9.996;2023-04-15T00:40:46;3.30;99.90
21302;DHT22;10810;48.270;9.996;2023-04-15T00:43:14;3.30;99.90
21302;DHT22;10810;48.270;9.996;2023-04-15T00:45:40;3.30;99.90
21302;DHT22;10810;48.270;9.996;2023-04-15T00:48:07;3.30;99.90
21302;DHT22;10810;48.270;9.996;2023-04-15T00:50:35;3.10;99.90
21302;DHT22;10810;48.270;9.996;2023-04-15T00:53:02;3.10;99.90
21302;DHT22;10810;48.270;9.996;2023-04-15T00:55:29;3.10;99.90
21302;DHT22;10810;48.270;9.996;2023-04-15T00:57:57;3.10;99.90
21302;DHT22;10810;48.270;9.996;2023-04-15T01:00:24;3.30;99.90
21302;DHT22;10810;48.270;9.996;2023-04-15T01:02:51;3.30;99.90
21302;DHT22;10810;48.270;9.996;2023-04-15T01:05:18;3.30;99.90
21302;DHT22;10810;48.270;9.996;2023-04-15T01:07:46;3.20;99.90
21302;DHT22;10810;48.270;9.996;2023-04-15T01:10:13;3.20;99.90
21302;DHT22;10810;48.270;9.996;2023-04-15T01:12:41;3.10;99.90
21302;DHT22;10810;48.270;9.996;2023-04-15T01:15:09;2.90;99.90
21302;DHT22;10810;48.270;9.996;2023-04-15T01:17:37;2.80;99.90
21302;DHT22;10810;48.270;9.996;2023-04-15T01:20:06;2.80;99.90
21302;DHT22;10810;48.270;9.996;2023-04-15T01:22:34;2.80;99.90
21302;DHT22;10810;48.270;9.996;2023-04-15T01:25:05;2.80;99.90
21302;DHT22;10810;48.270;9.996;2023-04-15T01:27:38;2.80;99.90
21302;DHT22;10810;48.270;9.996;2023-04-15T01:30:08;2.80;99.90
21302;DHT22;10810;48.270;9.996;2023-04-15T01:32:36;2.70;99.90
21302;DHT22;10810;48.270;9.996;2023-04-15T01:35:03;2.80;99.90
21302;DHT22;10810;48.270;9.996;2023-04-15T01:37:30;2.60;99.90
21302;DHT22;10810;48.270;9.996;2023-04-15T01:39:58;2.60;99.90
21302;DHT22;10810;48.270;9.996;2023-04-15T01:42:25;2.60;99.90
21302;DHT22;10810;48.270;9.996;2023-04-15T01:44:53;2.60;99.90
21302;DHT22;10810;48.270;9.996;2023-04-15T01:47:20;2.70;99.90
21302;DHT22;10810;48.270;9.996;2023-04-15T01:49:47;2.60;99.90
21302;DHT22;10810;48.270;9.996;2023-04-15T01:52:14;2.70;99.90
21302;DHT22;10810;48.270;9.996;2023-04-15T01:54:41;2.70;99.90
21302;DHT22;10810;48.270;9.996;2023-04-15T01:57:08;2.50;99.90
21302;DHT22;10810;48.270;9.996;2023-04-15T01:59:35;2.40;99.90
21302;DHT22;10810;48.270;9.996;2023-04-15T02:02:04;2.40;99.90
21302;DHT22;10810;48.270;9.996;2023-04-15T02:04:31;2.50;99.90
21302;DHT22;10810;48.270;9.996;2023-04-15T02:06:58;2.50;99.90
21302;DHT22;10810;48.270;9.996;2023-04-15T02:09:26;2.50;99.90
21302;DHT22;10810;48.270;9.996;2023-04-15T02:11:53;2.60;99.90
21302;DHT22;10810;48.270;9.996;2023-04-15T02:14:20;2.50;99.90
21302;DHT22;10810;48.270;9.996;2023-04-15T02:16:46;2.50;99.90
21302;DHT22;10810;48.270;9.996;2023-04-15T02:19:15;2.60;99.90
21302;DHT22;10810;48.270;9.996;2023-04-15T02:21:42;2.70;99.90
21302;DHT22;10810;48.270;9.996;2023-04-15T02:24:09;2.70;99.90
21302;DHT22;10810;48.270;9.996;2023-04-15T02:26:36;2.70;99.90
21302;DHT22;10810;48.270;9.996;2023-04-15T02:29:03;2.80;99.90
21302;DHT22;10810;48.270;9.996;2023-04-15T02:31:30;2.80;99.90
21302;DHT22;10810;48.270;9.996;2023-04-15T02:34:01;2.90;99.90
21302;DHT22;10810;48.270;9.996;2023-04-15T02:36:30;2.90;99.90
21302;DHT22;10810;48.270;9.996;2023-04-15T02:38:59;3.00;99.90
21302;DHT22;10810;48.270;9.996;2023-04-15T02:41:26;3.00;99.90
21302;DHT22;10810;48.270;9.996;2023-04-15T02:43:53;3.20;99.90
21302;DHT22;10810;48.270;9.996;2023-04-15T02:46:20;3.10;99.90
21302;DHT22;10810;48.270;9.996;2023-04-15T02:48:47;3.10;99.90
21302;DHT22;10810;48.270;9.996;2023-04-15T02:51:15;3.10;99.90
21302;DHT22;10810;48.270;9.996;2023-04-15T02:53:44;3.10;99.90
21302;DHT22;10810;48.270;9.996;2023-04-15T02:56:11;3.10;99.90
21302;DHT22;10810;48.270;9.996;2023-04-15T02:58:40;3.00;99.90
21302;DHT22;10810;48.270;9.996;2023-04-15T03:01:07;2.90;99.90
21302;DHT22;10810;48.270;9.996;2023-04-15T03:03:34;2.90;99.90
21302;DHT22;10810;48.270;9.996;2023-04-15T03:06:03;2.90;99.90
21302;DHT22;10810;48.270;9.996;2023-04-15T03:08:30;2.80;99.90
21302;DHT22;10810;48.270;9.996;2023-04-15T03:10:59;2.70;99.90
21302;DHT22;10810;48.270;9.996;2023-04-15T03:13:27;2.70;99.90
21302;DHT22;10810;48.270;9.996;2023-04-15T03:15:54;2.60;99.90
21302;DHT22;10810;48.270;9.996;2023-04-15T03:18:21;2.70;99.90
21302;DHT22;10810;48.270;9.996;2023-04-15T03:20:48;2.70;99.90
21302;DHT22;10810;48.270;9.996;2023-04-15T03:23:15;2.70;99.90
21302;DHT22;10810;48.270;9.996;2023-04-15T03:25:43;2.70;99.90
21302;DHT22;10810;48.270;9.996;2023-04-15T03:28:11;2.90;99.90
21302;DHT22;10810;48.270;9.996;2023-04-15T03:30:38;2.90;99.90
21302;DHT22;10810;48.270;9.996;2023-04-15T03:33:05;2.90;99.90
21302;DHT22;10810;48.270;9.996;2023-04-15T03:35:33;3.10;99.90
21302;DHT22;10810;48.270;9.996;2023-04-15T03:38:00;3.10;99.90
21302;DHT22;10810;48.270;9.996;2023-04-15T03:40:27;2.90;99.90
21302;DHT22;10810;48.270;9.996;2023-04-15T03:42:53;2.90;99.90
21302;DHT22;10810;48.270;9.996;2023-04-15T03:45:22;2.90;99.90
21302;DHT22;10810;48.270;9.996;2023-04-15T03:47:50;2.90;99.90
21302;DHT22;10810;48.270;9.996;2023-04-15T03:50:17;2.90;99.90
21302;DHT22;10810;48.270;9.996;2023-04-15T03:52:44;2.90;99.90
21302;DHT22;10810;48.270;9.996;2023-04-15T03:55:11;2.90;99.90
21302;DHT22;10810;48.270;9.996;2023-04-15T03:57:39;3.00;99.90
21302;DHT22;10810;48.270;9.996;2023-04-15T04:00:07;2.90;99.90
21302;DHT22;10810;48.270;9.996;2023-04-15T04:02:37;3.00;99.90
21302;DHT22;10810;48.270;9.996;2023-04-15T04:05:07;3.00;99.90
21302;DHT22;10810;48.270;9.996;2023-04-15T04:07:34;3.00;99.90
21302;DHT22;10810;48.270;9.996;2023-04-15T04:10:04;3.00;99.90
21302;DHT22;10810;48.270;9.996;2023-04-15T04:12:32;2.90;99.90
21302;DHT22;10810;48.270;9.996;2023-04-15T04:14:58;2.80;99.90
21302;DHT22;10810;48.270;9.996;2023-04-15T04:17:26;2.80;99.90
21302;DHT22;10810;48.270;9.996;2023-04-15T04:19:54;2.80;99.90
21302;DHT22;10810;48.270;9.996;2023-04-15T04:22:22;2.80;99.90
21302;DHT22;10810;48.270;9.996;2023-04-15T04:24:49;2.80;99.90
21302;DHT22;10810;48.270;9.996;2023-04-15T04:27:16;2.90;99.90
21302;DHT22;10810;48.270;9.996;2023-04-15T04:29:43;2.90;99.90
21302;DHT22;10810;48.270;9.996;2023-04-15T04:32:12;2.90;99.90
21302;DHT22;10810;48.270;9.996;2023-04-15T04:34:39;2.90;99.90
21302;DHT22;10810;48.270;9.996;2023-04-15T04:37:07;2.80;99.90
21302;DHT22;10810;48.270;9.996;2023-04-15T04:39:34;2.80;99.90
21302;DHT22;10810;48.270;9.996;2023-04-15T04:42:01;2.90;99.90
21302;DHT22;10810;48.270;9.996;2023-04-15T04:44:32;2.90;99.90
21302;DHT22;10810;48.270;9.996;2023-04-15T04:46:59;2.80;99.90
21302;DHT22;10810;48.270;9.996;2023-04-15T04:49:28;2.90;99.90
21302;DHT22;10810;48.270;9.996;2023-04-15T04:51:55;2.80;99.90
21302;DHT22;10810;48.270;9.996;2023-04-15T04:54:24;2.90;99.90
21302;DHT22;10810;48.270;9.996;2023-04-15T04:56:52;2.90;99.90
21302;DHT22;10810;48.270;9.996;2023-04-15T04:59:19;3.00;99.90
21302;DHT22;10810;48.270;9.996;2023-04-15T05:01:46;3.00;99.90
21302;DHT22;10810;48.270;9.996;2023-04-15T05:04:13;3.00;99.90
21302;DHT22;10810;48.270;9.996;2023-04-15T05:06:54;3.00;99.90
21302;DHT22;10810;48.270;9.996;2023-04-15T05:09:21;2.80;99.90
21302;DHT22;10810;48.270;9.996;2023-04-15T05:11:49;2.90;99.90
21302;DHT22;10810;48.270;9.996;2023-04-15T05:14:39;2.90;99.90
21302;DHT22;10810;48.270;9.996;2023-04-15T05:17:07;2.90;99.90
21302;DHT22;10810;48.270;9.996;2023-04-15T05:19:38;3.00;99.90
21302;DHT22;10810;48.270;9.996;2023-04-15T05:22:23;3.00;99.90
21302;DHT22;10810;48.270;9.996;2023-04-15T05:24:50;3.00;99.90
21302;DHT22;10810;48.270;9.996;2023-04-15T05:27:19;3.00;99.90
21302;DHT22;10810;48.270;9.996;2023-04-15T05:29:47;3.10;99.90
21302;DHT22;10810;48.270;9.996;2023-04-15T05:32:14;3.00;99.90
21302;DHT22;10810;48.270;9.996;2023-04-15T05:34:43;2.90;99.90
21302;DHT22;10810;48.270;9.996;2023-04-15T05:37:14;2.80;99.90
21302;DHT22;10810;48.270;9.996;2023-04-15T05:39:41;2.90;99.90
21302;DHT22;10810;48.270;9.996;2023-04-15T05:42:22;2.90;99.90
21302;DHT22;10810;48.270;9.996;2023-04-15T05:48:28;3.00;99.90
21302;DHT22;10810;48.270;9.996;2023-04-15T05:51:17;3.10;99.90
21302;DHT22;10810;48.270;9.996;2023-04-15T05:53:44;3.20;99.90
21302;DHT22;10810;48.270;9.996;2023-04-15T05:56:11;3.10;99.90
21302;DHT22;10810;48.270;9.996;2023-04-15T05:58:40;3.20;99.90
21302;DHT22;10810;48.270;9.996;2023-04-15T06:01:07;3.30;99.90
21302;DHT22;10810;48.270;9.996;2023-04-15T06:03:33;3.40;99.90
21302;DHT22;10810;48.270;9.996;2023-04-15T06:06:00;3.60;99.90
21302;DHT22;10810;48.270;9.996;2023-04-15T06:08:28;3.70;99.90
21302;DHT22;10810;48.270;9.996;2023-04-15T06:10:55;3.80;99.90
21302;DHT22;10810;48.270;9.996;2023-04-15T06:13:22;3.80;99.90
21302;DHT22;10810;48.270;9.996;2023-04-15T06:15:50;3.90;99.90
21302;DHT22;10810;48.270;9.996;2023-04-15T06:18:18;3.90;99.90
21302;DHT22;10810;48.270;9.996;2023-04-15T06:20:45;3.90;99.90
21302;DHT22;10810;48.270;9.996;2023-04-15T06:23:12;3.90;99.90
21302;DHT22;10810;48.270;9.996;2023-04-15T06:25:39;4.00;99.90
21302;DHT22;10810;48.270;9.996;2023-04-15T06:28:06;4.00;99.90
21302;DHT22;10810;48.270;9.996;2023-04-15T06:30:33;4.10;99.90
21302;DHT22;10810;48.270;9.996;2023-04-15T06:33:02;4.10;99.90
21302;DHT22;10810;48.270;9.996;2023-04-15T06:35:30;4.00;99.90
21302;DHT22;10810;48.270;9.996;2023-04-15T06:37:57;4.10;99.90
21302;DHT22;10810;48.270;9.996;2023-04-15T06:40:23;4.20;99.90
21302;DHT22;10810;48.270;9.996;2023-04-15T06:42:51;4.20;99.90
21302;DHT22;10810;48.270;9.996;2023-04-15T06:45:18;4.30;99.90
21302;DHT22;10810;48.270;9.996;2023-04-15T06:47:45;4.30;99.90
21302;DHT22;10810;48.270;9.996;2023-04-15T06:50:13;4.40;99.90
21302;DHT22;10810;48.270;9.996;2023-04-15T06:52:40;4.50;99.90
21302;DHT22;10810;48.270;9.996;2023-04-15T06:55:07;4.60;99.90
21302;DHT22;10810;48.270;9.996;2023-04-15T06:57:34;4.70;99.90
21302;DHT22;10810;48.270;9.996;2023-04-15T07:00:02;4.80;99.90
21302;DHT22;10810;48.270;9.996;2023-04-15T07:02:30;4.80;99.90
21302;DHT22;10810;48.270;9.996;2023-04-15T07:04:57;4.90;99.90
21302;DHT22;10810;48.270;9.996;2023-04-15T07:07:25;5.10;99.90
21302;DHT22;10810;48.270;9.996;2023-04-15T07:09:54;5.30;99.90
21302;DHT22;10810;48.270;9.996;2023-04-15T07:12:32;5.40;99.90
21302;DHT22;10810;48.270;9.996;2023-04-15T07:15:00;5.50;99.90
21302;DHT22;10810;48.270;9.996;2023-04-15T07:21:00;5.00;99.90
21302;DHT22;10810;48.270;9.996;2023-04-15T07:33:44;6.60;99.90
21302;DHT22;10810;48.270;9.996;2023-04-15T07:36:37;6.80;99.90
21302;DHT22;10810;48.270;9.996;2023-04-15T07:39:26;7.00;99.90
21302;DHT22;10810;48.270;9.996;2023-04-15T07:42:12;7.20;99.90
21302;DHT22;10810;48.270;9.996;2023-04-15T07:45:12;7.40;99.90
21302;DHT22;10810;48.270;9.996;2023-04-15T07:47:50;7.60;99.90
21302;DHT22;10810;48.270;9.996;2023-04-15T07:50:45;7.60;99.90
21302;DHT22;10810;48.270;9.996;2023-04-15T07:53:44;7.70;99.90
21302;DHT22;10810;48.270;9.996;2023-04-15T07:56:41;7.20;99.90
21302;DHT22;10810;48.270;9.996;2023-04-15T07:59:09;8.20;99.90
21302;DHT22;10810;48.270;9.996;2023-04-15T08:01:46;8.20;99.90
21302;DHT22;10810;48.270;9.996;2023-04-15T08:04:24;8.30;99.90
21302;DHT22;10810;48.270;9.996;2023-04-15T08:07:13;8.30;99.90
21302;DHT22;10810;48.270;9.996;2023-04-15T08:09:40;8.40;99.90
21302;DHT22;10810;48.270;9.996;2023-04-15T08:12:39;8.30;99.90
21302;DHT22;10810;48.270;9.996;2023-04-15T08:15:32;8.20;99.90
21302;DHT22;10810;48.270;9.996;2023-04-15T08:19:38;8.20;99.90
21302;DHT22;10810;48.270;9.996;2023-04-15T08:21:47;8.30;99.90
21302;DHT22;10810;48.270;9.996;2023-04-15T08:27:29;8.80;99.90
21302;DHT22;10810;48.270;9.996;2023-04-15T08:29:56;9.10;99.90
21302;DHT22;10810;48.270;9.996;2023-04-15T08:32:49;9.30;99.90
21302;DHT22;10810;48.270;9.996;2023-04-15T08:35:50;9.60;99.90
21302;DHT22;10810;48.270;9.996;2023-04-15T08:38:52;9.70;99.90
21302;DHT22;10810;48.270;9.996;2023-04-15T08:41:22;9.90;99.90
21302;DHT22;10810;48.270;9.996;2023-04-15T08:44:00;10.00;99.90
21302;DHT22;10810;48.270;9.996;2023-04-15T08:46:53;10.20;99.90
21302;DHT22;10810;48.270;9.996;2023-04-15T08:49:56;10.40;99.90
21302;DHT22;10810;48.270;9.996;2023-04-15T08:53:04;10.40;99.90
21302;DHT22;10810;48.270;9.996;2023-04-15T08:55:54;10.30;99.90
21302;DHT22;10810;48.270;9.996;2023-04-15T08:59:20;10.80;99.90
21302;DHT22;10810;48.270;9.996;2023-04-15T09:01:41;11.00;99.90
21302;DHT22;10810;48.270;9.996;2023-04-15T09:04:09;11.10;99.90
21302;DHT22;10810;48.270;9.996;2023-04-15T09:06:38;11.20;99.90
21302;DHT22;10810;48.270;9.996;2023-04-15T09:09:07;11.30;99.90
21302;DHT22;10810;48.270;9.996;2023-04-15T09:11:49;11.00;99.70
21302;DHT22;10810;48.270;9.996;2023-04-15T09:14:18;11.20;99.90
21302;DHT22;10810;48.270;9.996;2023-04-15T09:17:02;11.30;99.90
21302;DHT22;10810;48.270;9.996;2023-04-15T09:19:31;11.50;99.90
21302;DHT22;10810;48.270;9.996;2023-04-15T09:22:17;11.40;99.90
21302;DHT22;10810;48.270;9.996;2023-04-15T09:25:48;11.30;99.90
21302;DHT22;10810;48.270;9.996;2023-04-15T09:28:45;11.90;99.90
21302;DHT22;10810;48.270;9.996;2023-04-15T09:31:40;11.80;99.90
21302;DHT22;10810;48.270;9.996;2023-04-15T09:34:35;11.90;99.90
21302;DHT22;10810;48.270;9.996;2023-04-15T09:37:34;11.90;99.90
21302;DHT22;10810;48.270;9.996;2023-04-15T09:40:42;11.90;99.90
21302;DHT22;10810;48.270;9.996;2023-04-15T09:44:11;11.40;99.90
21302;DHT22;10810;48.270;9.996;2023-04-15T09:46:41;11.80;99.90
21302;DHT22;10810;48.270;9.996;2023-04-15T09:49:15;11.90;99.90
21302;DHT22;10810;48.270;9.996;2023-04-15T09:58:57;12.30;99.90
21302;DHT22;10810;48.270;9.996;2023-04-15T10:02:22;12.40;94.50
21302;DHT22;10810;48.270;9.996;2023-04-15T10:05:13;12.30;94.60
21302;DHT22;10810;48.270;9.996;2023-04-15T10:08:10;12.60;96.30
21302;DHT22;10810;48.270;9.996;2023-04-15T10:11:03;12.90;92.30
21302;DHT22;10810;48.270;9.996;2023-04-15T10:23:03;12.70;95.40
21302;DHT22;10810;48.270;9.996;2023-04-15T10:23:23;13.00;93.60
21302;DHT22;10810;48.270;9.996;2023-04-15T10:26:11;13.20;92.90
21302;DHT22;10810;48.270;9.996;2023-04-15T10:30:15;13.10;93.70
21302;DHT22;10810;48.270;9.996;2023-04-15T10:39:20;13.60;82.50
21302;DHT22;10810;48.270;9.996;2023-04-15T10:42:19;12.90;82.40
21302;DHT22;10810;48.270;9.996;2023-04-15T10:45:03;13.10;91.40
21302;DHT22;10810;48.270;9.996;2023-04-15T10:48:11;13.00;91.10
21302;DHT22;10810;48.270;9.996;2023-04-15T10:50:59;13.30;88.90
21302;DHT22;10810;48.270;9.996;2023-04-15T10:57:36;12.90;81.30
21302;DHT22;10810;48.270;9.996;2023-04-15T11:00:45;12.50;82.80
21302;DHT22;10810;48.270;9.996;2023-04-15T11:04:09;12.20;91.30
21302;DHT22;10810;48.270;9.996;2023-04-15T11:06:56;12.80;90.80
21302;DHT22;10810;48.270;9.996;2023-04-15T11:09:58;12.50;81.60
21302;DHT22;10810;48.270;9.996;2023-04-15T11:12:36;12.40;84.50
21302;DHT22;10810;48.270;9.996;2023-04-15T11:15:27;12.50;90.50
21302;DHT22;10810;48.270;9.996;2023-04-15T11:17:55;12.80;89.20
21302;DHT22;10810;48.270;9.996;2023-04-15T11:20:22;13.00;90.30
21302;DHT22;10810;48.270;9.996;2023-04-15T11:22:51;13.30;89.10
21302;DHT22;10810;48.270;9.996;2023-04-15T11:25:24;13.80;91.70
21302;DHT22;10810;48.270;9.996;2023-04-15T11:31:41;14.10;84.60
21302;DHT22;10810;48.270;9.996;2023-04-15T11:34:26;13.30;72.00
21302;DHT22;10810;48.270;9.996;2023-04-15T11:40:23;12.80;76.00
21302;DHT22;10810;48.270;9.996;2023-04-15T11:46:49;12.40;73.50
21302;DHT22;10810;48.270;9.996;2023-04-15T11:49:54;12.60;74.20
21302;DHT22;10810;48.270;9.996;2023-04-15T11:52:33;12.40;70.90
21302;DHT22;10810;48.270;9.996;2023-04-15T11:55:10;12.50;71.10
21302;DHT22;10810;48.270;9.996;2023-04-15T11:57:41;12.50;70.60
21302;DHT22;10810;48.270;9.996;2023-04-15T12:00:21;12.40;70.40
21302;DHT22;10810;48.270;9.996;2023-04-15T12:03:35;12.30;74.90
21302;DHT22;10810;48.270;9.996;2023-04-15T12:06:24;12.20;71.60
21302;DHT22;10810;48.270;9.996;2023-04-15T12:09:23;12.20;73.70
21302;DHT22;10810;48.270;9.996;2023-04-15T12:15:48;12.30;71.60
21302;DHT22;10810;48.270;9.996;2023-04-15T12:18:31;12.10;74.20
21302;DHT22;10810;48.270;9.996;2023-04-15T12:21:08;11.80;77.10
21302;DHT22;10810;48.270;9.996;2023-04-15T12:27:43;11.50;79.50
21302;DHT22;10810;48.270;9.996;2023-04-15T12:32:12;11.50;80.90
21302;DHT22;10810;48.270;9.996;2023-04-15T12:33:53;11.60;82.50
21302;DHT22;10810;48.270;9.996;2023-04-15T12:36:25;11.60;81.40
21302;DHT22;10810;48.270;9.996;2023-04-15T12:39:00;11.70;80.10
21302;DHT22;10810;48.270;9.996;2023-04-15T12:42:10;11.90;77.90
21302;DHT22;10810;48.270;9.996;2023-04-15T12:48:07;12.00;77.20
21302;DHT22;10810;48.270;9.996;2023-04-15T12:50:44;12.20;78.50
21302;DHT22;10810;48.270;9.996;2023-04-15T12:53:33;12.30;90.40
21302;DHT22;10810;48.270;9.996;2023-04-15T12:56:07;12.20;92.10
21302;DHT22;10810;48.270;9.996;2023-04-15T13:00:33;11.80;93.30
21302;DHT22;10810;48.270;9.996;2023-04-15T13:02:00;11.80;94.20
21302;DHT22;10810;48.270;9.996;2023-04-15T13:04:44;11.60;94.00
21302;DHT22;10810;48.270;9.996;2023-04-15T13:07:32;11.50;93.50
21302;DHT22;10810;48.270;9.996;2023-04-15T13:10:15;11.50;93.40
21302;DHT22;10810;48.270;9.996;2023-04-15T13:12:47;11.50;93.40
21302;DHT22;10810;48.270;9.996;2023-04-15T13:18:39;11.50;94.30
21302;DHT22;10810;48.270;9.996;2023-04-15T13:21:19;11.50;94.10
21302;DHT22;10810;48.270;9.996;2023-04-15T13:23:54;11.50;94.10
21302;DHT22;10810;48.270;9.996;2023-04-15T13:26:24;11.60;92.20
21302;DHT22;10810;48.270;9.996;2023-04-15T13:29:09;11.60;93.40
21302;DHT22;10810;48.270;9.996;2023-04-15T13:32:01;11.60;93.30
21302;DHT22;10810;48.270;9.996;2023-04-15T13:34:33;11.80;94.30
21302;DHT22;10810;48.270;9.996;2023-04-15T13:37:27;11.90;93.50
21302;DHT22;10810;48.270;9.996;2023-04-15T13:40:24;12.00;91.40
21302;DHT22;10810;48.270;9.996;2023-04-15T13:43:08;11.60;91.20
21302;DHT22;10810;48.270;9.996;2023-04-15T13:45:45;11.80;92.10
21302;DHT22;10810;48.270;9.996;2023-04-15T13:48:12;11.80;91.10
21302;DHT22;10810;48.270;9.996;2023-04-15T13:50:46;11.60;90.10
21302;DHT22;10810;48.270;9.996;2023-04-15T13:53:29;11.50;90.40
21302;DHT22;10810;48.270;9.996;2023-04-15T13:56:23;11.40;91.80
21302;DHT22;10810;48.270;9.996;2023-04-15T13:58:54;11.40;92.00
21302;DHT22;10810;48.270;9.996;2023-04-15T14:01:47;11.30;93.20
21302;DHT22;10810;48.270;9.996;2023-04-15T14:04:23;11.10;94.50
21302;DHT22;10810;48.270;9.996;2023-04-15T14:07:20;10.80;96.70
21302;DHT22;10810;48.270;9.996;2023-04-15T14:10:02;10.40;99.40
21302;DHT22;10810;48.270;9.996;2023-04-15T14:12:31;10.10;99.90
21302;DHT22;10810;48.270;9.996;2023-04-15T14:15:55;10.00;99.90
21302;DHT22;10810;48.270;9.996;2023-04-15T14:18:32;9.70;99.90
21302;DHT22;10810;48.270;9.996;2023-04-15T14:21:19;9.70;99.90
21302;DHT22;10810;48.270;9.996;2023-04-15T14:23:50;9.50;99.90
21302;DHT22;10810;48.270;9.996;2023-04-15T14:26:26;9.50;99.90
21302;DHT22;10810;48.270;9.996;2023-04-15T14:29:19;9.50;99.90
21302;DHT22;10810;48.270;9.996;2023-04-15T14:32:01;9.40;99.90
21302;DHT22;10810;48.270;9.996;2023-04-15T14:34:43;9.40;99.90
21302;DHT22;10810;48.270;9.996;2023-04-15T14:37:57;9.20;99.90
21302;DHT22;10810;48.270;9.996;2023-04-15T14:40:43;9.10;99.90
21302;DHT22;10810;48.270;9.996;2023-04-15T14:43:24;9.00;99.90
21302;DHT22;10810;48.270;9.996;2023-04-15T14:46:13;8.80;99.90
21302;DHT22;10810;48.270;9.996;2023-04-15T14:48:44;8.70;99.90
21302;DHT22;10810;48.270;9.996;2023-04-15T14:51:34;8.70;99.90
21302;DHT22;10810;48.270;9.996;2023-04-15T14:54:14;8.50;99.90
21302;DHT22;10810;48.270;9.996;2023-04-15T14:56:46;8.40;99.90
21302;DHT22;10810;48.270;9.996;2023-04-15T14:59:43;8.30;99.90
21302;DHT22;10810;48.270;9.996;2023-04-15T15:05:38;8.30;99.90
21302;DHT22;10810;48.270;9.996;2023-04-15T15:08:27;8.40;99.90
21302;DHT22;10810;48.270;9.996;2023-04-15T15:10:55;8.50;99.90
21302;DHT22;10810;48.270;9.996;2023-04-15T15:14:05;8.60;99.90
21302;DHT22;10810;48.270;9.996;2023-04-15T15:16:49;8.60;99.90
21302;DHT22;10810;48.270;9.996;2023-04-15T15:21:24;8.60;99.90
21302;DHT22;10810;48.270;9.996;2023-04-15T15:22:49;8.70;99.90
21302;DHT22;10810;48.270;9.996;2023-04-15T15:28:38;8.70;99.90
21302;DHT22;10810;48.270;9.996;2023-04-15T15:31:13;8.70;99.90
21302;DHT22;10810;48.270;9.996;2023-04-15T15:33:47;8.70;99.90
21302;DHT22;10810;48.270;9.996;2023-04-15T15:36:48;8.70;99.90
21302;DHT22;10810;48.270;9.996;2023-04-15T15:42:44;8.80;99.90
21302;DHT22;10810;48.270;9.996;2023-04-15T15:45:14;8.80;99.90
21302;DHT22;10810;48.270;9.996;2023-04-15T15:47:41;8.80;99.90
21302;DHT22;10810;48.270;9.996;2023-04-15T15:50:12;8.80;99.90
21302;DHT22;10810;48.270;9.996;2023-04-15T15:52:40;8.90;99.90
21302;DHT22;10810;48.270;9.996;2023-04-15T15:55:07;8.90;99.90
21302;DHT22;10810;48.270;9.996;2023-04-15T15:57:36;8.90;99.90
21302;DHT22;10810;48.270;9.996;2023-04-15T16:00:03;9.00;99.90
21302;DHT22;10810;48.270;9.996;2023-04-15T16:02:32;9.00;99.90
21302;DHT22;10810;48.270;9.996;2023-04-15T16:05:02;9.10;99.90
21302;DHT22;10810;48.270;9.996;2023-04-15T16:08:23;9.00;99.90
21302;DHT22;10810;48.270;9.996;2023-04-15T16:10:53;9.00;99.90
21302;DHT22;10810;48.270;9.996;2023-04-15T16:16:51;9.00;99.90
21302;DHT22;10810;48.270;9.996;2023-04-15T16:19:34;9.00;99.90
21302;DHT22;10810;48.270;9.996;2023-04-15T16:22:15;9.00;99.90
21302;DHT22;10810;48.270;9.996;2023-04-15T16:24:46;8.90;99.90
21302;DHT22;10810;48.270;9.996;2023-04-15T16:27:26;9.30;99.90
21302;DHT22;10810;48.270;9.996;2023-04-15T16:29:53;8.90;99.90
21302;DHT22;10810;48.270;9.996;2023-04-15T16:32:29;8.90;99.90
21302;DHT22;10810;48.270;9.996;2023-04-15T16:35:32;8.90;99.90
21302;DHT22;10810;48.270;9.996;2023-04-15T16:38:38;8.90;99.90
21302;DHT22;10810;48.270;9.996;2023-04-15T16:41:26;8.90;99.90
21302;DHT22;10810;48.270;9.996;2023-04-15T16:43:56;8.90;99.90
21302;DHT22;10810;48.270;9.996;2023-04-15T16:46:27;8.80;99.90
21302;DHT22;10810;48.270;9.996;2023-04-15T16:49:01;8.90;99.90
21302;DHT22;10810;48.270;9.996;2023-04-15T16:51:29;8.80;99.90
21302;DHT22;10810;48.270;9.996;2023-04-15T16:54:30;8.90;99.90
21302;DHT22;10810;48.270;9.996;2023-04-15T16:57:53;8.90;99.90
21302;DHT22;10810;48.270;9.996;2023-04-15T17:00:29;8.80;99.90
21302;DHT22;10810;48.270;9.996;2023-04-15T17:03:03;8.80;99.90
21302;DHT22;10810;48.270;9.996;2023-04-15T17:05:36;8.80;99.90
21302;DHT22;10810;48.270;9.996;2023-04-15T17:08:03;8.80;99.90
21302;DHT22;10810;48.270;9.996;2023-04-15T17:10:30;8.80;99.90
21302;DHT22;10810;48.270;9.996;2023-04-15T17:12:58;8.70;99.90
21302;DHT22;10810;48.270;9.996;2023-04-15T17:15:25;8.70;99.90
21302;DHT22;10810;48.270;9.996;2023-04-15T17:17:52;8.60;99.90
21302;DHT22;10810;48.270;9.996;2023-04-15T17:20:22;8.60;99.90
21302;DHT22;10810;48.270;9.996;2023-04-15T17:23:14;8.60;99.90
21302;DHT22;10810;48.270;9.996;2023-04-15T17:26:11;8.60;99.90
21302;DHT22;10810;48.270;9.996;2023-04-15T17:28:53;7.70;99.90
21302;DHT22;10810;48.270;9.996;2023-04-15T17:31:36;8.30;99.90
21302;DHT22;10810;48.270;9.996;2023-04-15T17:34:05;8.20;99.90
21302;DHT22;10810;48.270;9.996;2023-04-15T17:36:42;8.20;99.90
21302;DHT22;10810;48.270;9.996;2023-04-15T17:39:36;8.20;99.90
21302;DHT22;10810;48.270;9.996;2023-04-15T17:45:30;7.90;99.90
21302;DHT22;10810;48.270;9.996;2023-04-15T17:47:58;7.80;99.90
21302;DHT22;10810;48.270;9.996;2023-04-15T17:51:06;7.70;99.90
21302;DHT22;10810;48.270;9.996;2023-04-15T17:53:31;7.60;99.90
21302;DHT22;10810;48.270;9.996;2023-04-15T17:56:02;7.60;99.90
21302;DHT22;10810;48.270;9.996;2023-04-15T17:58:31;7.50;99.90
21302;DHT22;10810;48.270;9.996;2023-04-15T18:00:58;7.50;99.90
21302;DHT22;10810;48.270;9.996;2023-04-15T18:03:26;7.30;99.90
21302;DHT22;10810;48.270;9.996;2023-04-15T18:05:55;7.10;99.90
21302;DHT22;10810;48.270;9.996;2023-04-15T18:08:26;7.10;99.90
21302;DHT22;10810;48.270;9.996;2023-04-15T18:14:44;7.00;99.90